Time;durP1;ratioP1;P1;durP2;ratioP2;P2;SDS_P1;SDS_P2;PMS_P1;PMS_P2;Temp;Humidity;BMP_temperature;BMP_pressure;BME280_temperature;BME280_humidity;BME280_pressure;Samples;Min_cycle;Max_cycle;Signal;HPM_P1;HPM_P2
2022/10/02 00:01:05;;;;;;;13.70;5.10;;;;;;;10.71;100.00;96126.44;4974236;28;24453;-74
2022/10/02 00:03:37;;;;;;;9.38;5.00;;;;;;;10.71;100.00;96123.03;4984563;28;24444;-73
2022/10/02 00:06:09;;;;;;;7.97;3.00;;;;;;;10.68;100.00;96124.06;4975106;28;24455;-73
2022/10/02 00:08:40;;;;;;;5.32;2.63;;;;;;;10.68;100.00;96139.59;4978198;28;24438;-74
2022/10/02 00:11:13;;;;;;;14.60;3.40;;;;;;;10.63;100.00;96129.47;4975329;28;24452;-73
2022/10/02 00:13:44;;;;;;;4.90;2.70;;;;;;;10.63;100.00;96128.66;4976972;28;24443;-73
2022/10/02 00:16:20;;;;;;;4.43;1.90;;;;;;;10.65;100.00;96124.22;4978079;28;24438;-73
2022/10/02 00:18:48;;;;;;;3.78;1.50;;;;;;;10.69;100.00;96120.53;4990204;28;24443;-73
2022/10/02 00:21:29;;;;;;;5.75;1.83;;;;;;;10.66;100.00;96116.34;4977093;28;25042;-73
2022/10/02 00:23:58;;;;;;;3.30;1.48;;;;;;;10.61;100.00;96110.63;4982084;28;24442;-73
2022/10/02 00:26:31;;;;;;;4.90;1.47;;;;;;;10.62;100.00;96130.41;4978713;28;24494;-73
2022/10/02 00:29:06;;;;;;;4.45;1.58;;;;;;;10.65;100.00;96126.81;4983931;28;24429;-73
2022/10/02 00:31:43;;;;;;;3.75;1.60;;;;;;;10.63;100.00;96139.00;4986790;28;24425;-73
2022/10/02 00:34:20;;;;;;;6.00;1.40;;;;;;;10.61;100.00;96156.41;4974084;28;24441;-73
2022/10/02 00:36:55;;;;;;;5.07;1.57;;;;;;;10.64;100.00;96148.44;4979301;28;24507;-73
2022/10/02 00:39:32;;;;;;;4.38;1.25;;;;;;;10.64;100.00;96140.66;4977871;28;24800;-73
2022/10/02 00:42:48;;;;;;;5.10;1.20;;;;;;;10.68;100.00;96147.38;4974186;28;24453;-73
2022/10/02 00:45:45;;;;;;;4.88;1.30;;;;;;;10.67;100.00;96148.25;4975085;28;24448;-73
2022/10/02 00:48:40;;;;;;;4.07;1.27;;;;;;;10.70;100.00;96150.69;4980465;28;24445;-73
2022/10/02 00:51:23;;;;;;;3.23;1.30;;;;;;;10.72;100.00;96148.03;4976055;28;24460;-73
2022/10/02 00:53:56;;;;;;;4.57;1.92;;;;;;;10.72;100.00;96156.63;4972800;28;24438;-73
2022/10/02 00:56:30;;;;;;;3.37;1.20;;;;;;;10.72;100.00;96148.84;4970626;28;24433;-73
2022/10/02 00:59:13;;;;;;;11.57;1.73;;;;;;;10.77;100.00;96153.75;4973449;28;24434;-73
2022/10/02 01:01:46;;;;;;;4.13;1.80;;;;;;;10.78;100.00;96155.44;4975591;28;24454;-73
2022/10/02 01:04:18;;;;;;;5.03;1.58;;;;;;;10.80;100.00;96163.97;4972972;28;24446;-73
2022/10/02 01:06:46;;;;;;;3.65;1.40;;;;;;;10.80;100.00;96169.97;4974708;28;24441;-74
2022/10/02 01:09:13;;;;;;;3.83;1.45;;;;;;;10.83;100.00;96166.38;4972716;28;24434;-73
2022/10/02 01:11:39;;;;;;;6.45;1.50;;;;;;;10.77;100.00;96164.13;4979874;28;24440;-73
2022/10/02 01:14:06;;;;;;;5.25;1.45;;;;;;;10.81;100.00;96165.63;4980997;28;24433;-73
2022/10/02 01:16:33;;;;;;;8.75;2.00;;;;;;;10.85;100.00;96167.13;4981652;28;24441;-73
2022/10/02 01:18:59;;;;;;;4.10;1.40;;;;;;;10.90;100.00;96165.06;4979922;28;24440;-74
2022/10/02 01:21:33;;;;;;;4.90;1.52;;;;;;;10.88;100.00;96164.34;4978911;28;24456;-73
2022/10/02 01:24:09;;;;;;;3.58;1.67;;;;;;;10.90;100.00;96159.91;4976910;28;24536;-73
2022/10/02 01:26:37;;;;;;;9.50;1.70;;;;;;;10.93;100.00;96148.53;4971230;28;24460;-73
2022/10/02 01:29:04;;;;;;;8.00;1.77;;;;;;;10.95;100.00;96157.06;4974410;28;24486;-74
2022/10/02 01:31:32;;;;;;;2.63;1.15;;;;;;;10.97;100.00;96168.16;4977548;28;24441;-74
2022/10/02 01:33:59;;;;;;;7.70;1.83;;;;;;;10.93;100.00;96157.13;4973619;28;24441;-74
2022/10/02 01:36:26;;;;;;;4.35;1.60;;;;;;;10.94;100.00;96163.16;4979034;28;24456;-73
2022/10/02 01:38:54;;;;;;;4.80;1.70;;;;;;;10.95;100.00;96157.88;4974140;28;24441;-74
2022/10/02 01:41:22;;;;;;;6.63;2.05;;;;;;;10.94;100.00;96157.97;4985213;28;24980;-74
2022/10/02 01:43:53;;;;;;;7.05;2.15;;;;;;;10.88;100.00;96156.56;4974913;28;24445;-74
2022/10/02 01:46:32;;;;;;;4.18;1.60;;;;;;;10.93;100.00;96154.53;4985834;28;24894;-73
2022/10/02 01:49:28;;;;;;;4.13;1.67;;;;;;;10.94;100.00;96145.00;4981032;28;24441;-74
2022/10/02 01:52:12;;;;;;;5.43;1.63;;;;;;;10.92;100.00;96158.06;4982366;28;24993;-73
2022/10/02 01:54:49;;;;;;;5.22;1.70;;;;;;;10.92;100.00;96167.59;4982597;28;24448;-74
2022/10/02 01:57:26;;;;;;;7.53;1.90;;;;;;;10.87;100.00;96163.53;4976481;28;24520;-73
2022/10/02 02:00:06;;;;;;;4.80;1.80;;;;;;;10.86;100.00;96167.03;4981886;28;25021;-74
2022/10/02 02:02:42;;;;;;;4.57;1.83;;;;;;;10.84;100.00;96168.88;4975972;28;24454;-73
2022/10/02 02:05:14;;;;;;;4.55;1.63;;;;;;;10.87;100.00;96167.88;4982772;28;24452;-73
2022/10/02 02:07:49;;;;;;;5.05;1.50;;;;;;;10.89;100.00;96172.03;4985825;28;24437;-73
2022/10/02 02:10:24;;;;;;;7.82;1.95;;;;;;;10.87;100.00;96160.94;4984580;28;24473;-73
2022/10/02 02:13:00;;;;;;;8.63;2.17;;;;;;;10.92;100.00;96162.41;4979391;28;24441;-73
2022/10/02 02:15:35;;;;;;;7.15;2.10;;;;;;;10.92;100.00;96168.44;4982132;28;24436;-74
2022/10/02 02:18:09;;;;;;;7.82;1.80;;;;;;;10.93;100.00;96171.84;4988181;28;24433;-73
2022/10/02 02:20:43;;;;;;;4.38;1.40;;;;;;;10.96;100.00;96169.91;4985032;28;24453;-73
2022/10/02 02:23:15;;;;;;;9.98;1.83;;;;;;;10.94;100.00;96164.00;4989392;28;24433;-74
2022/10/02 02:25:45;;;;;;;5.97;2.20;;;;;;;10.94;100.00;96169.19;4980888;28;24488;-73
2022/10/02 02:28:16;;;;;;;6.18;1.70;;;;;;;10.98;100.00;96146.53;4979607;28;24472;-73
2022/10/02 02:30:47;;;;;;;5.63;1.55;;;;;;;11.02;100.00;96135.03;4980574;28;24448;-74
2022/10/02 02:33:19;;;;;;;5.03;1.50;;;;;;;11.03;100.00;96131.53;4978695;28;24437;-74
2022/10/02 02:35:48;;;;;;;7.53;2.13;;;;;;;11.03;100.00;96134.94;4987400;28;24444;-73
2022/10/02 02:38:21;;;;;;;5.80;1.95;;;;;;;10.97;100.00;96142.25;4983648;28;24802;-73
2022/10/02 02:40:50;;;;;;;5.38;1.67;;;;;;;10.96;100.00;96145.75;4986188;28;24815;-73
2022/10/02 02:43:22;;;;;;;6.63;1.90;;;;;;;10.92;100.00;96150.28;4988290;28;24817;-73
2022/10/02 02:45:55;;;;;;;10.37;2.13;;;;;;;10.94;100.00;96153.63;4978514;28;24458;-73
2022/10/02 02:48:26;;;;;;;5.28;1.85;;;;;;;10.93;100.00;96151.94;4985400;28;24436;-73
2022/10/02 02:50:58;;;;;;;10.82;2.08;;;;;;;10.97;100.00;96142.25;4974468;28;24437;-73
2022/10/02 02:53:29;;;;;;;4.93;1.70;;;;;;;10.96;100.00;96149.19;4979372;28;24529;-73
2022/10/02 02:55:59;;;;;;;4.32;1.50;;;;;;;10.95;100.00;96159.66;4975596;28;24433;-73
2022/10/02 02:58:29;;;;;;;8.02;1.88;;;;;;;10.98;100.00;96162.06;4979593;28;24450;-73
2022/10/02 03:00:57;;;;;;;4.63;1.85;;;;;;;11.00;100.00;96160.22;4975637;28;24491;-74
2022/10/02 03:03:24;;;;;;;3.37;1.50;;;;;;;11.00;100.00;96163.63;4977489;28;24445;-74
2022/10/02 03:05:58;;;;;;;3.27;1.37;;;;;;;11.02;100.00;96156.63;4984218;28;24527;-73
2022/10/02 03:08:30;;;;;;;8.93;1.48;;;;;;;11.02;100.00;96171.34;4977163;28;24548;-73
2022/10/02 03:11:08;;;;;;;4.20;1.50;;;;;;;11.02;100.00;96166.97;4978921;28;24546;-73
2022/10/02 03:13:48;;;;;;;5.43;1.52;;;;;;;11.01;100.00;96172.22;4977737;28;25045;-74
2022/10/02 03:16:33;;;;;;;4.37;1.50;;;;;;;11.03;100.00;96168.63;4976079;28;24461;-73
2022/10/02 03:19:15;;;;;;;6.40;1.53;;;;;;;11.05;100.00;96171.13;4982983;28;24473;-74
2022/10/02 03:21:51;;;;;;;4.88;1.75;;;;;;;11.00;100.00;96162.78;4981220;28;24551;-73
2022/10/02 03:24:23;;;;;;;4.30;1.80;;;;;;;11.04;100.00;96178.06;4980647;28;24440;-73
2022/10/02 03:26:56;;;;;;;9.85;2.20;;;;;;;11.04;100.00;96159.09;4976634;28;24449;-73
2022/10/02 03:29:38;;;;;;;9.05;2.50;;;;;;;11.05;100.00;96153.84;4984024;28;24522;-73
2022/10/02 03:32:08;;;;;;;6.32;2.22;;;;;;;11.03;100.00;96154.84;4982960;28;24432;-73
2022/10/02 03:34:37;;;;;;;5.97;1.80;;;;;;;11.04;100.00;96156.50;4984836;28;24437;-74
2022/10/02 03:37:04;;;;;;;6.00;2.40;;;;;;;11.02;100.00;96169.56;4983481;28;24443;-73
2022/10/02 03:39:30;;;;;;;8.50;2.20;;;;;;;10.99;100.00;96164.56;4985895;28;24537;-73
2022/10/02 03:41:57;;;;;;;6.68;2.35;;;;;;;10.97;100.00;96171.56;4975910;28;24982;-73
2022/10/02 03:44:23;;;;;;;6.75;2.28;;;;;;;11.01;100.00;96157.53;4981024;28;24440;-73
2022/10/02 03:46:50;;;;;;;14.05;6.25;;;;;;;11.06;100.00;96159.88;4980691;28;24815;-74
2022/10/02 03:49:18;;;;;;;9.00;3.88;;;;;;;10.99;100.00;96167.16;4981832;28;24444;-73
2022/10/02 03:51:45;;;;;;;15.98;8.57;;;;;;;11.02;100.00;96169.56;4975023;28;24465;-74
2022/10/02 03:54:17;;;;;;;14.88;8.48;;;;;;;11.02;100.00;96166.16;4974726;28;24444;-73
2022/10/02 03:56:52;;;;;;;13.93;6.65;;;;;;;11.00;100.00;96170.56;4986600;28;24468;-73
2022/10/02 03:59:33;;;;;;;10.73;5.78;;;;;;;10.99;100.00;96172.34;4981642;28;24445;-73
2022/10/02 04:02:02;;;;;;;11.27;4.70;;;;;;;11.04;100.00;96177.25;4984005;28;24461;-74
2022/10/02 04:04:40;;;;;;;6.70;2.78;;;;;;;10.99;100.00;96180.09;4973471;28;24536;-73
2022/10/02 04:07:15;;;;;;;9.63;2.88;;;;;;;11.00;100.00;96173.16;4984340;28;24433;-73
2022/10/02 04:09:47;;;;;;;12.30;5.83;;;;;;;11.02;100.00;96171.34;4979042;28;24444;-73
2022/10/02 04:12:18;;;;;;;11.27;3.95;;;;;;;10.98;100.00;96180.22;4986430;28;24449;-73
2022/10/02 04:14:51;;;;;;;14.15;3.60;;;;;;;11.01;100.00;96161.88;4981540;28;24989;-74
2022/10/02 04:17:22;;;;;;;13.05;6.43;;;;;;;11.03;100.00;96168.63;4984678;28;24625;-73
2022/10/02 04:19:56;;;;;;;21.53;8.23;;;;;;;11.06;100.00;96163.28;4973373;28;24430;-74
2022/10/02 04:22:33;;;;;;;13.55;3.83;;;;;;;11.05;100.00;96168.53;4983611;28;24462;-73
2022/10/02 04:25:05;;;;;;;14.95;7.35;;;;;;;11.03;100.00;96171.22;4973554;28;24529;-73
2022/10/02 04:27:36;;;;;;;11.73;5.18;;;;;;;11.00;100.00;96174.00;4978195;28;24438;-73
2022/10/02 04:30:06;;;;;;;7.55;2.30;;;;;;;10.95;100.00;96182.97;4973491;28;24436;-73
2022/10/02 04:32:35;;;;;;;4.65;1.70;;;;;;;10.93;100.00;96185.63;4979396;28;24440;-73
2022/10/02 04:35:09;;;;;;;7.18;2.28;;;;;;;10.95;100.00;96177.78;4981523;28;24449;-73
2022/10/02 04:37:51;;;;;;;7.00;3.50;;;;;;;10.95;100.00;96163.06;4980837;28;24469;-73
2022/10/02 04:40:35;;;;;;;19.65;8.80;;;;;;;10.93;100.00;96169.25;4994163;28;24436;-73
2022/10/02 04:43:11;;;;;;;9.02;4.53;;;;;;;10.91;100.00;96159.00;4974667;28;24449;-73
2022/10/02 04:45:53;;;;;;;12.27;5.30;;;;;;;10.88;100.00;96157.41;4988828;28;24437;-73
2022/10/02 04:48:53;;;;;;;10.02;4.50;;;;;;;10.84;100.00;96147.31;4974498;28;24452;-73
2022/10/02 04:51:31;;;;;;;5.90;3.03;;;;;;;10.81;100.00;96156.09;4984892;28;24513;-73
2022/10/02 04:54:21;;;;;;;6.57;2.20;;;;;;;10.75;100.00;96151.25;4999655;23;24461;-72
2022/10/02 04:57:04;;;;;;;4.47;1.65;;;;;;;10.75;100.00;96146.06;4988524;28;24429;-72
2022/10/02 04:59:43;;;;;;;5.03;1.70;;;;;;;10.75;100.00;96153.00;4984617;28;24436;-72
2022/10/02 05:02:24;;;;;;;5.60;1.97;;;;;;;10.77;100.00;96151.19;4989257;28;24829;-73
2022/10/02 05:05:14;;;;;;;10.15;3.83;;;;;;;10.84;100.00;96140.38;4981465;28;24448;-73
2022/10/02 05:07:56;;;;;;;20.70;7.95;;;;;;;10.84;100.00;96135.19;4986552;28;24988;-73
2022/10/02 05:10:40;;;;;;;30.70;10.95;;;;;;;10.86;100.00;96142.84;4989644;28;24437;-73
2022/10/02 05:13:23;;;;;;;14.68;6.35;;;;;;;10.80;100.00;96148.41;4988559;28;24433;-72
2022/10/02 05:16:13;;;;;;;13.02;5.13;;;;;;;10.79;100.00;96138.94;4984521;28;24441;-71
2022/10/02 05:19:06;;;;;;;7.80;3.65;;;;;;;10.82;100.00;96142.19;4986816;28;24436;-71
2022/10/02 05:21:48;;;;;;;5.90;2.50;;;;;;;10.88;100.00;96128.06;4978213;28;24567;-71
2022/10/02 05:24:36;;;;;;;4.15;1.77;;;;;;;10.86;100.00;96124.72;4989506;28;24453;-71
2022/10/02 05:27:29;;;;;;;4.20;1.45;;;;;;;10.87;100.00;96131.59;4989142;28;24445;-73
2022/10/02 05:30:09;;;;;;;4.13;1.50;;;;;;;10.84;100.00;96148.16;4982735;28;24792;-73
2022/10/02 05:33:10;;;;;;;2.50;1.38;;;;;;;10.88;100.00;96147.03;4990630;28;24978;-72
2022/10/02 05:35:58;;;;;;;4.95;1.70;;;;;;;10.88;100.00;96131.50;4975786;28;24448;-72
2022/10/02 05:38:45;;;;;;;3.80;1.40;;;;;;;10.87;100.00;96132.41;4984290;28;24995;-72
2022/10/02 05:41:20;;;;;;;5.68;1.73;;;;;;;10.82;100.00;96144.78;4989003;28;24432;-72
2022/10/02 05:43:52;;;;;;;10.30;3.53;;;;;;;10.75;100.00;96153.84;4987551;28;24825;-72
2022/10/02 05:46:23;;;;;;;7.07;4.30;;;;;;;10.72;100.00;96156.63;4991031;28;24811;-72
2022/10/02 05:48:57;;;;;;;4.57;2.10;;;;;;;10.72;100.00;96159.22;4992065;28;24433;-72
2022/10/02 05:51:35;;;;;;;17.13;10.57;;;;;;;10.77;100.00;96157.19;4991088;28;24421;-72
2022/10/02 05:54:05;;;;;;;33.15;20.92;;;;;;;10.80;100.00;96157.03;4991495;28;24498;-72
2022/10/02 05:56:38;;;;;;;19.30;13.20;;;;;;;10.85;100.00;96165.34;4990601;28;24436;-72
2022/10/02 05:59:13;;;;;;;15.13;9.90;;;;;;;10.89;100.00;96155.63;4991664;28;24440;-72
2022/10/02 06:01:44;;;;;;;14.88;9.63;;;;;;;10.94;100.00;96163.16;4990787;28;24432;-72
2022/10/02 06:04:15;;;;;;;8.68;5.63;;;;;;;10.90;100.00;96175.44;4991480;28;25044;-72
2022/10/02 06:06:46;;;;;;;10.75;5.97;;;;;;;10.87;100.00;96181.66;4990847;28;24495;-72
2022/10/02 06:09:16;;;;;;;7.00;3.60;;;;;;;10.93;100.00;96166.66;4991204;28;24444;-72
2022/10/02 06:11:51;;;;;;;7.38;5.00;;;;;;;10.96;100.00;96156.13;4990955;28;24425;-72
2022/10/02 06:14:25;;;;;;;6.60;3.22;;;;;;;10.98;100.00;96143.94;4988809;28;24889;-72
2022/10/02 06:16:57;;;;;;;4.72;2.13;;;;;;;11.02;100.00;96142.81;4988216;28;24496;-72
2022/10/02 06:19:30;;;;;;;4.13;1.70;;;;;;;11.04;100.00;96143.56;4983666;28;24460;-75
2022/10/02 06:22:07;;;;;;;3.73;1.60;;;;;;;11.12;100.00;96134.41;4988203;28;24908;-72
2022/10/02 06:24:38;;;;;;;7.32;2.17;;;;;;;11.31;100.00;96121.19;4989117;28;24449;-72
2022/10/02 06:27:12;;;;;;;6.57;2.03;;;;;;;11.42;100.00;96117.09;4988252;28;24835;-72
2022/10/02 06:29:45;;;;;;;8.93;2.40;;;;;;;11.63;100.00;96113.19;4985077;28;24429;-72
2022/10/02 06:32:19;;;;;;;5.63;2.22;;;;;;;11.53;100.00;96107.75;4986275;28;24990;-72
2022/10/02 06:34:45;;;;;;;4.82;1.88;;;;;;;11.78;100.00;96107.06;4986173;28;24795;-73
2022/10/02 06:37:28;;;;;;;4.43;1.67;;;;;;;11.65;100.00;96100.16;4983407;28;24441;-71
2022/10/02 06:40:08;;;;;;;7.07;1.63;;;;;;;11.58;100.00;96100.50;4988067;28;24429;-72
2022/10/02 06:42:48;;;;;;;4.20;1.70;;;;;;;11.48;100.00;96096.81;4988858;28;24445;-73
2022/10/02 06:45:23;;;;;;;3.67;1.38;;;;;;;11.41;100.00;96102.47;4982042;28;24432;-69
2022/10/02 06:48:00;;;;;;;4.85;1.55;;;;;;;11.43;100.00;96098.88;4991368;28;24441;-69
2022/10/02 06:50:41;;;;;;;3.92;1.60;;;;;;;11.44;100.00;96103.13;4979514;28;24987;-72
2022/10/02 06:53:38;;;;;;;4.72;1.40;;;;;;;11.45;100.00;96102.19;4990324;28;24440;-72
2022/10/02 06:56:26;;;;;;;3.50;1.50;;;;;;;11.44;100.00;96110.06;4988980;28;24503;-72
2022/10/02 06:59:05;;;;;;;4.30;1.30;;;;;;;11.45;100.00;96111.72;4991708;28;24429;-72
2022/10/02 07:01:45;;;;;;;3.90;1.55;;;;;;;11.46;100.00;96118.56;4987763;28;24437;-73
2022/10/02 07:04:25;;;;;;;6.60;2.00;;;;;;;11.39;100.00;96118.97;4989010;28;24467;-73
2022/10/02 07:07:04;;;;;;;5.10;2.03;;;;;;;11.38;100.00;96117.31;4986733;28;24432;-73
2022/10/02 07:10:06;;;;;;;6.65;2.40;;;;;;;11.46;100.00;96114.25;4984355;28;24430;-73
2022/10/02 07:12:47;;;;;;;4.90;2.50;;;;;;;11.49;100.00;96102.84;4985004;28;24524;-73
2022/10/02 07:15:34;;;;;;;5.75;2.60;;;;;;;11.54;100.00;96106.00;4983381;28;24444;-73
2022/10/02 07:18:16;;;;;;;6.78;2.45;;;;;;;11.51;100.00;96099.22;4990130;28;24495;-73
2022/10/02 07:20:54;;;;;;;3.17;1.70;;;;;;;11.51;100.00;96091.44;4982455;28;25040;-73
2022/10/02 07:23:51;;;;;;;5.00;2.10;;;;;;;11.50;100.00;96086.38;4990673;28;24460;-73
2022/10/02 07:26:35;;;;;;;3.75;1.80;;;;;;;11.52;100.00;96092.28;4987817;28;24432;-73
2022/10/02 07:29:13;;;;;;;4.75;2.05;;;;;;;11.58;100.00;96090.13;4990608;28;24444;-73
2022/10/02 07:31:48;;;;;;;4.15;1.85;;;;;;;11.62;100.00;96083.00;4987078;28;24448;-72
2022/10/02 07:34:27;;;;;;;5.80;1.70;;;;;;;11.67;100.00;96080.13;4985426;28;24461;-72
2022/10/02 07:37:05;;;;;;;3.97;1.85;;;;;;;11.71;100.00;96073.81;4984210;28;24435;-72
2022/10/02 07:39:45;;;;;;;6.13;2.08;;;;;;;11.77;100.00;96078.63;4984381;28;24433;-72
2022/10/02 07:42:28;;;;;;;5.87;2.00;;;;;;;11.78;100.00;96077.69;4988506;28;24447;-72
2022/10/02 07:45:16;;;;;;;5.60;1.95;;;;;;;11.80;100.00;96081.84;4980263;28;24827;-72
2022/10/02 07:47:57;;;;;;;9.43;2.25;;;;;;;11.73;100.00;96085.75;4977059;28;24993;-72
2022/10/02 07:50:32;;;;;;;7.40;2.20;;;;;;;11.80;100.00;96088.81;4990613;28;24444;-72
2022/10/02 07:53:11;;;;;;;4.63;1.92;;;;;;;11.73;100.00;96085.75;4980314;28;24442;-72
2022/10/02 07:55:41;;;;;;;5.07;2.83;;;;;;;11.69;100.00;96083.47;4990819;28;24535;-72
2022/10/02 07:58:13;;;;;;;7.25;2.70;;;;;;;11.80;100.00;96081.84;4989074;28;24533;-72
2022/10/02 08:00:45;;;;;;;5.63;2.38;;;;;;;11.99;100.00;96072.94;4982782;28;24472;-72
2022/10/02 08:03:17;;;;;;;5.32;2.17;;;;;;;12.09;100.00;96082.66;4990631;28;24544;-72
2022/10/02 08:05:47;;;;;;;5.13;2.03;;;;;;;12.00;100.00;96082.38;4991135;28;24467;-72
2022/10/02 08:08:20;;;;;;;5.25;2.03;;;;;;;12.02;100.00;96080.53;4991240;28;24429;-72
2022/10/02 08:10:51;;;;;;;6.30;2.47;;;;;;;12.03;100.00;96082.19;4991057;28;24433;-72
2022/10/02 08:13:23;;;;;;;5.75;2.38;;;;;;;12.01;100.00;96084.88;4988497;28;24448;-72
2022/10/02 08:15:54;;;;;;;7.38;2.67;;;;;;;11.94;100.00;96082.78;4981431;28;24803;-72
2022/10/02 08:18:31;;;;;;;7.17;2.57;;;;;;;11.92;100.00;96080.28;4975646;28;24428;-72
2022/10/02 08:20:58;;;;;;;5.57;2.20;;;;;;;12.00;100.00;96091.00;4982539;28;24958;-72
2022/10/02 08:23:30;;;;;;;5.15;1.98;;;;;;;12.08;100.00;96088.75;4982640;28;25033;-72
2022/10/02 08:26:04;;;;;;;3.75;1.90;;;;;;;12.20;100.00;96081.09;4990281;28;24452;-72
2022/10/02 08:28:37;;;;;;;7.72;2.08;;;;;;;12.42;100.00;96072.75;4986463;28;24496;-72
2022/10/02 08:31:09;;;;;;;8.65;2.05;;;;;;;12.46;100.00;96062.09;4984851;28;24433;-72
2022/10/02 08:33:37;;;;;;;5.80;2.15;;;;;;;12.52;100.00;96068.63;4987289;28;24502;-72
2022/10/02 08:36:32;;;;;;;8.63;2.42;;;;;;;12.64;100.00;96067.00;4990644;28;24798;-72
2022/10/02 08:39:12;;;;;;;6.93;2.60;;;;;;;12.81;100.00;96069.31;4968903;28;24446;-72
2022/10/02 08:42:12;;;;;;;6.40;2.50;;;;;;;12.93;100.00;96063.28;4984239;28;24448;-72
2022/10/02 08:45:23;;;;;;;4.90;2.22;;;;;;;13.03;100.00;96053.94;4984587;28;24838;-72
2022/10/02 08:48:28;;;;;;;7.35;2.40;;;;;;;13.27;100.00;96051.47;4900926;28;24435;-72
2022/10/02 08:51:24;;;;;;;4.88;1.70;;;;;;;13.38;100.00;96042.88;4978046;28;24456;-72
2022/10/02 08:54:24;;;;;;;3.75;1.73;;;;;;;13.46;100.00;96038.00;4981455;28;24461;-72
2022/10/02 08:57:12;;;;;;;5.90;2.22;;;;;;;13.50;100.00;96046.44;4990378;28;24436;-72
2022/10/02 09:00:04;;;;;;;3.60;1.50;;;;;;;13.76;100.00;96042.81;4994721;28;24448;-72
2022/10/02 09:03:23;;;;;;;3.00;1.58;;;;;;;13.98;100.00;96041.28;4990344;28;24496;-72
2022/10/02 09:06:10;;;;;;;2.70;1.30;;;;;;;14.28;100.00;96025.19;4987901;28;24441;-72
2022/10/02 09:09:10;;;;;;;2.10;0.90;;;;;;;14.61;100.00;96021.91;4989224;28;24495;-72
2022/10/02 09:12:14;;;;;;;2.10;0.73;;;;;;;14.79;100.00;96026.66;4983456;28;24432;-72
2022/10/02 09:14:48;;;;;;;2.30;0.75;;;;;;;15.01;100.00;96026.69;4965758;28;24437;-71
2022/10/02 09:17:43;;;;;;;2.67;0.70;;;;;;;15.17;100.00;96036.81;4994486;28;24447;-71
2022/10/02 09:20:34;;;;;;;1.67;0.60;;;;;;;15.36;100.00;96038.81;4989808;28;24441;-71
2022/10/02 09:23:40;;;;;;;2.20;0.68;;;;;;;15.51;100.00;96035.03;4975610;28;24441;-71
2022/10/02 09:26:19;;;;;;;9.45;0.70;;;;;;;15.55;100.00;96039.03;4967848;28;24444;-72
2022/10/02 09:29:21;;;;;;;0.75;0.40;;;;;;;15.63;100.00;96035.81;4992977;28;24432;-72
2022/10/02 09:32:43;;;;;;;3.50;1.20;;;;;;;15.73;100.00;96024.56;4991631;28;24437;-72
2022/10/02 09:35:46;;;;;;;2.83;1.67;;;;;;;15.91;100.00;96018.84;4975188;28;24439;-72
2022/10/02 09:38:44;;;;;;;2.73;2.40;;;;;;;15.88;100.00;96025.13;4990896;28;25280;-72
2022/10/02 09:41:52;;;;;;;1.67;1.30;;;;;;;15.73;100.00;96019.34;4988442;28;24896;-72
2022/10/02 09:44:50;;;;;;;1.42;1.25;;;;;;;15.68;100.00;96031.94;4991332;28;24819;-73
2022/10/02 09:48:00;;;;;;;9.15;2.40;;;;;;;15.68;100.00;96029.34;4982961;28;24449;-72
2022/10/02 09:51:08;;;;;;;1.70;0.80;;;;;;;15.70;100.00;96027.41;4954169;28;25013;-72
2022/10/02 09:53:59;;;;;;;2.47;1.98;;;;;;;15.83;100.00;96027.25;4977837;28;24444;-72
2022/10/02 09:57:02;;;;;;;4.78;1.80;;;;;;;15.84;100.00;96034.16;4988687;28;24811;-72
2022/10/02 09:59:51;;;;;;;0.73;0.40;;;;;;;15.96;100.00;96034.97;4919018;28;24985;-72
2022/10/02 10:03:02;;;;;;;0.32;0.15;;;;;;;15.84;100.00;96034.16;4991006;28;24445;-72
2022/10/02 10:05:58;;;;;;;0.30;0.30;;;;;;;15.87;100.00;96025.25;4983163;28;24438;-72
2022/10/02 10:08:48;;;;;;;0.55;0.40;;;;;;;16.08;100.00;96018.28;4946783;28;24443;-72
2022/10/02 10:11:38;;;;;;;1.42;0.43;;;;;;;16.19;100.00;96033.94;4987511;28;24444;-72
2022/10/02 10:14:30;;;;;;;0.98;0.45;;;;;;;16.33;100.00;96037.22;4991726;28;24807;-72
2022/10/02 10:17:21;;;;;;;0.33;0.20;;;;;;;16.30;100.00;96037.47;4988296;28;25137;-72
2022/10/02 10:20:11;;;;;;;0.30;0.20;;;;;;;16.32;100.00;96030.34;4979399;28;24440;-72
2022/10/02 10:23:11;;;;;;;0.77;0.20;;;;;;;16.29;100.00;96026.19;4989823;28;24444;-72
2022/10/02 10:25:54;;;;;;;0.25;0.15;;;;;;;16.30;100.00;96022.63;4983690;28;24545;-72
2022/10/02 10:29:02;;;;;;;0.30;0.20;;;;;;;16.30;100.00;96016.56;4990368;28;24437;-72
2022/10/02 10:32:13;;;;;;;0.20;0.10;;;;;;;16.34;100.00;96031.03;4989574;28;24468;-72
2022/10/02 10:35:04;;;;;;;0.40;0.20;;;;;;;16.49;100.00;96028.94;4985528;28;24440;-72
2022/10/02 10:40:55;;;;;;;0.98;0.30;;;;;;;16.63;100.00;96024.25;4985990;28;24427;-72
2022/10/02 10:43:59;;;;;;;0.50;0.47;;;;;;;16.69;100.00;96043.84;4991039;28;24449;-72
2022/10/02 10:46:42;;;;;;;1.00;0.30;;;;;;;16.81;100.00;96031.56;4979075;28;24441;-72
2022/10/02 10:49:24;;;;;;;0.43;0.10;;;;;;;16.69;100.00;96039.44;4982274;28;24993;-72
2022/10/02 10:51:58;;;;;;;0.20;0.10;;;;;;;16.54;100.00;96025.00;4980941;28;24447;-73
2022/10/02 10:54:55;;;;;;;0.50;0.00;;;;;;;16.59;100.00;96037.69;4995659;23;24504;-73
2022/10/02 10:57:41;;;;;;;0.10;0.10;;;;;;;16.57;100.00;96032.59;4977320;28;24430;-73
2022/10/02 11:00:20;;;;;;;0.28;0.20;;;;;;;16.62;100.00;96047.91;4974507;28;24444;-72
2022/10/02 11:03:20;;;;;;;0.30;0.10;;;;;;;16.58;100.00;96052.56;4972886;28;24791;-73
2022/10/02 11:06:18;;;;;;;0.30;0.10;;;;;;;16.65;100.00;96058.94;4965130;28;24453;-73
2022/10/02 11:09:28;;;;;;;1.67;0.30;;;;;;;16.51;100.00;96056.63;4966356;28;24433;-73
2022/10/02 11:12:10;;;;;;;0.40;0.22;;;;;;;16.55;100.00;96050.19;4963938;28;24982;-72
2022/10/02 11:14:54;;;;;;;0.20;0.10;;;;;;;16.41;100.00;96045.25;4965961;28;24452;-73
2022/10/02 11:17:46;;;;;;;0.32;0.22;;;;;;;16.35;100.00;96041.38;4969460;28;24458;-73
2022/10/02 11:20:57;;;;;;;0.90;0.20;;;;;;;16.47;100.00;96039.53;4966362;28;24437;-73
2022/10/02 11:24:02;;;;;;;1.52;0.10;;;;;;;16.38;100.00;96035.06;4924345;28;24464;-73
2022/10/02 11:26:45;;;;;;;0.30;0.20;;;;;;;16.32;100.00;96012.88;4965530;28;24445;-73
2022/10/02 11:29:41;;;;;;;2.80;0.28;;;;;;;16.24;100.00;96035.34;4966221;28;25014;-73
2022/10/02 11:32:41;;;;;;;0.10;0.10;;;;;;;16.06;100.00;96040.31;4966418;28;25023;-73
2022/10/02 11:35:22;;;;;;;0.30;0.30;;;;;;;16.00;100.00;96046.00;4963037;28;24513;-73
2022/10/02 11:38:17;;;;;;;1.10;0.30;;;;;;;16.10;100.00;96049.53;4966792;28;24432;-73
2022/10/02 11:40:59;;;;;;;0.75;0.30;;;;;;;15.83;100.00;96069.06;4963535;28;24453;-73
2022/10/02 11:43:40;;;;;;;0.80;0.30;;;;;;;15.46;100.00;96061.47;4952061;28;24450;-73
2022/10/02 11:46:21;;;;;;;0.65;0.40;;;;;;;15.38;100.00;96056.00;4966604;28;24440;-73
2022/10/02 11:49:24;;;;;;;3.22;0.30;;;;;;;14.99;100.00;96049.47;4964625;28;24434;-73
2022/10/02 11:52:21;;;;;;;0.55;0.28;;;;;;;14.60;100.00;96042.84;4946875;28;24445;-73
2022/10/02 11:55:20;;;;;;;0.40;0.30;;;;;;;14.45;100.00;96052.59;4957237;28;24446;-73
2022/10/02 11:57:56;;;;;;;0.40;0.30;;;;;;;14.11;100.00;96060.28;4963057;28;24442;-72
2022/10/02 12:01:05;;;;;;;0.10;0.10;;;;;;;14.05;100.00;96052.91;4966265;28;24433;-73
2022/10/02 12:03:46;;;;;;;0.20;0.20;;;;;;;13.89;100.00;96068.81;4952359;28;24508;-73
2022/10/02 12:06:22;;;;;;;0.30;0.22;;;;;;;13.91;100.00;96066.94;4969767;28;24804;-73
2022/10/02 12:09:01;;;;;;;0.20;0.20;;;;;;;13.80;100.00;96066.88;4963118;28;24448;-73
2022/10/02 12:11:36;;;;;;;0.25;0.20;;;;;;;13.60;100.00;96070.03;4952060;28;24796;-73
2022/10/02 12:14:15;;;;;;;0.80;0.22;;;;;;;13.56;100.00;96072.84;4956965;28;24430;-73
2022/10/02 12:16:56;;;;;;;0.10;0.10;;;;;;;13.52;100.00;96052.34;4960872;28;24445;-73
2022/10/02 12:26:57;;;;;;;0.27;0.23;;;;;;;13.56;100.00;96064.19;4970251;28;24523;-73
2022/10/02 12:28:23;;;;;;;0.82;0.20;;;;;;;13.28;100.00;96063.53;4963338;28;24473;-73
2022/10/02 12:31:00;;;;;;;1.17;0.50;;;;;;;13.17;100.00;96060.78;4968198;28;24432;-73
2022/10/02 12:33:33;;;;;;;0.30;0.20;;;;;;;13.32;100.00;96070.19;4957238;28;24463;-73
2022/10/02 12:36:23;;;;;;;0.40;0.30;;;;;;;13.18;100.00;96074.63;4963185;28;24438;-73